sensor_id;sensor_type;location;lat;lon;timestamp;pressure;altitude;pressure_sealevel;temperature;humidity
2841;BME280;53423;49.224;12.074;2023-02-03T00:01:24;98684.38;;;3.31;73.43
2841;BME280;53423;49.224;12.074;2023-02-03T00:03:53;98681.81;;;3.31;72.70
2841;BME280;53423;49.224;12.074;2023-02-03T00:06:21;98680.59;;;3.22;74.05
2841;BME280;53423;49.224;12.074;2023-02-03T00:08:51;98685.88;;;3.21;73.51
2841;BME280;53423;49.224;12.074;2023-02-03T00:11:20;98688.28;;;3.24;73.89
2841;BME280;53423;49.224;12.074;2023-02-03T00:13:48;98686.59;;;3.23;73.57
2841;BME280;53423;49.224;12.074;2023-02-03T00:16:16;98678.00;;;3.22;74.01
2841;BME280;53423;49.224;12.074;2023-02-03T00:18:44;98678.28;;;3.32;73.43
2841;BME280;53423;49.224;12.074;2023-02-03T00:21:13;98683.25;;;3.35;73.30
2841;BME280;53423;49.224;12.074;2023-02-03T00:23:41;98680.84;;;3.46;73.25
2841;BME280;53423;49.224;12.074;2023-02-03T00:26:11;98675.56;;;3.47;73.48
2841;BME280;53423;49.224;12.074;2023-02-03T00:28:40;98675.13;;;3.41;73.51
2841;BME280;53423;49.224;12.074;2023-02-03T00:31:14;98673.44;;;3.40;73.50
2841;BME280;53423;49.224;12.074;2023-02-03T00:33:42;98674.47;;;3.37;73.71
2841;BME280;53423;49.224;12.074;2023-02-03T00:36:11;98680.19;;;3.42;73.49
2841;BME280;53423;49.224;12.074;2023-02-03T00:38:40;98668.69;;;3.46;73.17
2841;BME280;53423;49.224;12.074;2023-02-03T00:41:08;98672.88;;;3.49;73.23
2841;BME280;53423;49.224;12.074;2023-02-03T00:43:36;98668.69;;;3.46;73.15
2841;BME280;53423;49.224;12.074;2023-02-03T00:46:04;98672.03;;;3.48;72.81
2841;BME280;53423;49.224;12.074;2023-02-03T00:48:32;98666.75;;;3.50;72.86
2841;BME280;53423;49.224;12.074;2023-02-03T00:51:00;98666.66;;;3.51;73.77
2841;BME280;53423;49.224;12.074;2023-02-03T00:53:28;98673.22;;;3.57;73.26
2841;BME280;53423;49.224;12.074;2023-02-03T00:55:57;98672.09;;;3.61;73.61
2841;BME280;53423;49.224;12.074;2023-02-03T00:58:25;98673.47;;;3.66;74.09
2841;BME280;53423;49.224;12.074;2023-02-03T01:00:54;98670.88;;;3.66;73.71
2841;BME280;53423;49.224;12.074;2023-02-03T01:03:22;98667.16;;;3.70;73.41
2841;BME280;53423;49.224;12.074;2023-02-03T01:05:50;98665.84;;;3.77;73.49
2841;BME280;53423;49.224;12.074;2023-02-03T01:08:18;98663.34;;;3.76;74.44
2841;BME280;53423;49.224;12.074;2023-02-03T01:10:46;98666.91;;;3.88;73.97
2841;BME280;53423;49.224;12.074;2023-02-03T01:13:15;98663.34;;;4.03;74.01
2841;BME280;53423;49.224;12.074;2023-02-03T01:15:46;98664.72;;;4.08;74.22
2841;BME280;53423;49.224;12.074;2023-02-03T01:18:14;98664.50;;;4.11;74.52
2841;BME280;53423;49.224;12.074;2023-02-03T01:20:42;98660.66;;;4.17;74.98
2841;BME280;53423;49.224;12.074;2023-02-03T01:23:10;98660.16;;;4.24;74.15
2841;BME280;53423;49.224;12.074;2023-02-03T01:25:38;98660.47;;;4.20;74.75
2841;BME280;53423;49.224;12.074;2023-02-03T01:28:06;98653.13;;;4.26;74.37
2841;BME280;53423;49.224;12.074;2023-02-03T01:30:35;98652.38;;;4.24;75.10
2841;BME280;53423;49.224;12.074;2023-02-03T01:33:04;98650.94;;;4.33;75.07
2841;BME280;53423;49.224;12.074;2023-02-03T01:35:33;98656.13;;;4.33;74.92
2841;BME280;53423;49.224;12.074;2023-02-03T01:38:01;98657.38;;;4.40;75.07
2841;BME280;53423;49.224;12.074;2023-02-03T01:40:29;98649.50;;;4.41;74.55
2841;BME280;53423;49.224;12.074;2023-02-03T01:42:57;98646.06;;;4.41;75.02
2841;BME280;53423;49.224;12.074;2023-02-03T01:45:25;98645.84;;;4.44;74.50
2841;BME280;53423;49.224;12.074;2023-02-03T01:47:57;98641.41;;;4.46;74.20
2841;BME280;53423;49.224;12.074;2023-02-03T01:50:29;98634.13;;;4.38;74.97
2841;BME280;53423;49.224;12.074;2023-02-03T01:53:01;98634.94;;;4.39;75.93
2841;BME280;53423;49.224;12.074;2023-02-03T01:55:33;98636.09;;;4.47;75.46
2841;BME280;53423;49.224;12.074;2023-02-03T01:58:05;98640.38;;;4.48;74.78
2841;BME280;53423;49.224;12.074;2023-02-03T02:00:34;98636.41;;;4.55;74.32
2841;BME280;53423;49.224;12.074;2023-02-03T02:03:04;98623.13;;;4.60;74.80
2841;BME280;53423;49.224;12.074;2023-02-03T02:05:36;98626.25;;;4.52;74.29
2841;BME280;53423;49.224;12.074;2023-02-03T02:08:07;98618.97;;;4.45;74.97
2841;BME280;53423;49.224;12.074;2023-02-03T02:10:36;98619.78;;;4.45;74.83
2841;BME280;53423;49.224;12.074;2023-02-03T02:13:04;98603.81;;;4.51;74.85
2841;BME280;53423;49.224;12.074;2023-02-03T02:15:41;98600.78;;;4.57;74.22
2841;BME280;53423;49.224;12.074;2023-02-03T02:18:34;98599.66;;;4.61;74.99
2841;BME280;53423;49.224;12.074;2023-02-03T02:24:14;98594.69;;;4.58;75.15
2841;BME280;53423;49.224;12.074;2023-02-03T02:26:53;98592.72;;;4.62;74.69
2841;BME280;53423;49.224;12.074;2023-02-03T02:32:26;98573.41;;;4.41;74.81
2841;BME280;53423;49.224;12.074;2023-02-03T02:35:02;98567.25;;;4.54;75.57
2841;BME280;53423;49.224;12.074;2023-02-03T02:37:37;98559.47;;;4.54;75.46
2841;BME280;53423;49.224;12.074;2023-02-03T02:40:17;98564.84;;;4.64;74.89
2841;BME280;53423;49.224;12.074;2023-02-03T02:42:57;98566.44;;;4.66;74.76
2841;BME280;53423;49.224;12.074;2023-02-03T02:45:28;98560.00;;;4.72;74.02
2841;BME280;53423;49.224;12.074;2023-02-03T02:48:03;98566.94;;;4.71;74.26
2841;BME280;53423;49.224;12.074;2023-02-03T02:50:39;98563.78;;;4.79;74.33
2841;BME280;53423;49.224;12.074;2023-02-03T02:53:09;98560.06;;;4.70;74.37
2841;BME280;53423;49.224;12.074;2023-02-03T02:55:39;98565.69;;;4.77;74.26
2841;BME280;53423;49.224;12.074;2023-02-03T02:58:11;98562.88;;;4.67;74.56
2841;BME280;53423;49.224;12.074;2023-02-03T03:00:42;98557.47;;;4.70;75.49
2841;BME280;53423;49.224;12.074;2023-02-03T03:03:17;98567.22;;;4.79;74.92
2841;BME280;53423;49.224;12.074;2023-02-03T03:05:48;98565.81;;;4.75;74.76
2841;BME280;53423;49.224;12.074;2023-02-03T03:08:20;98564.84;;;4.76;74.92
2841;BME280;53423;49.224;12.074;2023-02-03T03:10:52;98543.75;;;4.81;74.51
2841;BME280;53423;49.224;12.074;2023-02-03T03:13:24;98545.22;;;4.85;75.23
2841;BME280;53423;49.224;12.074;2023-02-03T03:15:53;98542.78;;;4.94;75.07
2841;BME280;53423;49.224;12.074;2023-02-03T03:18:29;98542.16;;;4.91;74.72
2841;BME280;53423;49.224;12.074;2023-02-03T03:21:01;98531.81;;;4.78;74.94
2841;BME280;53423;49.224;12.074;2023-02-03T03:23:36;98537.25;;;4.75;75.34
2841;BME280;53423;49.224;12.074;2023-02-03T03:26:09;98552.94;;;4.61;75.87
2841;BME280;53423;49.224;12.074;2023-02-03T03:28:45;98560.78;;;4.72;76.52
2841;BME280;53423;49.224;12.074;2023-02-03T03:31:15;98558.81;;;4.88;76.07
2841;BME280;53423;49.224;12.074;2023-02-03T03:33:46;98556.59;;;4.95;75.43
2841;BME280;53423;49.224;12.074;2023-02-03T03:36:22;98557.63;;;4.92;75.73
2841;BME280;53423;49.224;12.074;2023-02-03T03:38:55;98557.06;;;4.76;76.43
2841;BME280;53423;49.224;12.074;2023-02-03T03:41:30;98557.91;;;4.77;76.28
2841;BME280;53423;49.224;12.074;2023-02-03T03:44:03;98551.81;;;4.89;76.15
2841;BME280;53423;49.224;12.074;2023-02-03T03:46:38;98559.56;;;4.78;77.29
2841;BME280;53423;49.224;12.074;2023-02-03T03:49:10;98552.56;;;4.91;76.71
2841;BME280;53423;49.224;12.074;2023-02-03T03:51:41;98546.28;;;5.06;76.11
2841;BME280;53423;49.224;12.074;2023-02-03T03:54:14;98541.44;;;4.89;75.63
2841;BME280;53423;49.224;12.074;2023-02-03T03:56:47;98543.44;;;4.85;75.48
2841;BME280;53423;49.224;12.074;2023-02-03T03:59:19;98554.75;;;4.84;76.19
2841;BME280;53423;49.224;12.074;2023-02-03T04:01:50;98578.50;;;5.03;75.96
2841;BME280;53423;49.224;12.074;2023-02-03T04:04:20;98588.78;;;5.05;75.92
2841;BME280;53423;49.224;12.074;2023-02-03T04:06:51;98590.03;;;5.12;75.58
2841;BME280;53423;49.224;12.074;2023-02-03T04:09:19;98593.88;;;5.06;75.42
2841;BME280;53423;49.224;12.074;2023-02-03T04:11:47;98606.69;;;4.97;76.49
2841;BME280;53423;49.224;12.074;2023-02-03T04:14:33;98596.19;;;4.98;76.78
2841;BME280;53423;49.224;12.074;2023-02-03T04:17:01;98596.69;;;5.03;76.72
2841;BME280;53423;49.224;12.074;2023-02-03T04:19:30;98589.41;;;5.08;76.26
2841;BME280;53423;49.224;12.074;2023-02-03T04:21:58;98582.63;;;5.19;75.71
2841;BME280;53423;49.224;12.074;2023-02-03T04:24:26;98584.16;;;5.21;75.49
2841;BME280;53423;49.224;12.074;2023-02-03T04:26:54;98593.53;;;5.24;75.77
2841;BME280;53423;49.224;12.074;2023-02-03T04:29:22;98602.63;;;5.05;75.52
2841;BME280;53423;49.224;12.074;2023-02-03T04:31:50;98590.53;;;5.17;75.67
2841;BME280;53423;49.224;12.074;2023-02-03T04:34:18;98593.84;;;5.19;75.13
2841;BME280;53423;49.224;12.074;2023-02-03T04:36:47;98595.94;;;5.14;75.46
2841;BME280;53423;49.224;12.074;2023-02-03T04:39:15;98597.88;;;5.23;76.08
2841;BME280;53423;49.224;12.074;2023-02-03T04:41:43;98593.03;;;5.06;76.29
2841;BME280;53423;49.224;12.074;2023-02-03T04:44:11;98579.63;;;5.12;75.58
2841;BME280;53423;49.224;12.074;2023-02-03T04:46:39;98575.00;;;5.28;75.02
2841;BME280;53423;49.224;12.074;2023-02-03T04:49:07;98565.31;;;5.06;76.09
2841;BME280;53423;49.224;12.074;2023-02-03T04:51:37;98558.19;;;4.85;77.71
2841;BME280;53423;49.224;12.074;2023-02-03T04:54:06;98557.00;;;5.01;77.17
2841;BME280;53423;49.224;12.074;2023-02-03T04:56:35;98554.06;;;5.06;76.12
2841;BME280;53423;49.224;12.074;2023-02-03T04:59:03;98548.41;;;4.88;76.27
2841;BME280;53423;49.224;12.074;2023-02-03T05:01:31;98540.69;;;4.99;76.63
2841;BME280;53423;49.224;12.074;2023-02-03T05:03:59;98547.06;;;4.95;76.74
2841;BME280;53423;49.224;12.074;2023-02-03T05:06:28;98534.50;;;5.13;75.43
2841;BME280;53423;49.224;12.074;2023-02-03T05:08:57;98534.97;;;5.07;75.58
2841;BME280;53423;49.224;12.074;2023-02-03T05:11:27;98538.25;;;5.09;75.38
2841;BME280;53423;49.224;12.074;2023-02-03T05:13:55;98543.91;;;5.03;75.64
2841;BME280;53423;49.224;12.074;2023-02-03T05:16:23;98549.97;;;4.91;76.58
2841;BME280;53423;49.224;12.074;2023-02-03T05:18:51;98554.97;;;5.18;74.95
2841;BME280;53423;49.224;12.074;2023-02-03T05:21:19;98549.88;;;5.16;75.39
2841;BME280;53423;49.224;12.074;2023-02-03T05:23:48;98556.91;;;5.27;75.23
2841;BME280;53423;49.224;12.074;2023-02-03T05:26:15;98544.91;;;5.13;75.55
2841;BME280;53423;49.224;12.074;2023-02-03T05:28:45;98542.59;;;5.21;74.78
2841;BME280;53423;49.224;12.074;2023-02-03T05:31:13;98552.66;;;5.02;76.32
2841;BME280;53423;49.224;12.074;2023-02-03T05:33:41;98550.84;;;5.02;75.33
2841;BME280;53423;49.224;12.074;2023-02-03T05:36:09;98550.66;;;5.05;76.20
2841;BME280;53423;49.224;12.074;2023-02-03T05:38:37;98549.72;;;5.06;75.73
2841;BME280;53423;49.224;12.074;2023-02-03T05:41:04;98568.50;;;5.10;76.09
2841;BME280;53423;49.224;12.074;2023-02-03T05:43:51;98570.78;;;5.15;75.29
2841;BME280;53423;49.224;12.074;2023-02-03T05:46:19;98584.00;;;5.35;74.98
2841;BME280;53423;49.224;12.074;2023-02-03T05:48:47;98584.34;;;5.31;74.97
2841;BME280;53423;49.224;12.074;2023-02-03T05:51:15;98573.63;;;5.35;74.43
2841;BME280;53423;49.224;12.074;2023-02-03T05:53:43;98579.69;;;5.23;74.70
2841;BME280;53423;49.224;12.074;2023-02-03T05:56:11;98571.28;;;5.20;75.21
2841;BME280;53423;49.224;12.074;2023-02-03T05:58:39;98579.69;;;5.23;74.98
2841;BME280;53423;49.224;12.074;2023-02-03T06:01:08;98571.88;;;5.36;74.84
2841;BME280;53423;49.224;12.074;2023-02-03T06:03:37;98566.97;;;5.31;74.48
2841;BME280;53423;49.224;12.074;2023-02-03T06:06:05;98565.72;;;5.37;74.97
2841;BME280;53423;49.224;12.074;2023-02-03T06:08:33;98572.47;;;5.39;74.89
2841;BME280;53423;49.224;12.074;2023-02-03T06:11:01;98569.75;;;5.41;75.17
2841;BME280;53423;49.224;12.074;2023-02-03T06:13:29;98567.34;;;5.38;74.70
2841;BME280;53423;49.224;12.074;2023-02-03T06:15:57;98555.44;;;5.35;75.50
2841;BME280;53423;49.224;12.074;2023-02-03T06:18:26;98556.06;;;5.26;74.95
2841;BME280;53423;49.224;12.074;2023-02-03T06:20:54;98536.19;;;5.14;75.96
2841;BME280;53423;49.224;12.074;2023-02-03T06:23:22;98520.25;;;5.19;75.39
2841;BME280;53423;49.224;12.074;2023-02-03T06:25:51;98519.69;;;5.02;76.73
2841;BME280;53423;49.224;12.074;2023-02-03T06:28:19;98511.25;;;5.12;76.79
2841;BME280;53423;49.224;12.074;2023-02-03T06:30:49;98513.50;;;5.16;76.11
2841;BME280;53423;49.224;12.074;2023-02-03T06:33:18;98512.28;;;5.09;76.78
2841;BME280;53423;49.224;12.074;2023-02-03T06:35:47;98514.59;;;5.25;75.89
2841;BME280;53423;49.224;12.074;2023-02-03T06:38:15;98510.16;;;5.38;74.93
2841;BME280;53423;49.224;12.074;2023-02-03T06:40:45;98505.88;;;5.26;75.09
2841;BME280;53423;49.224;12.074;2023-02-03T06:43:13;98510.78;;;5.18;75.44
2841;BME280;53423;49.224;12.074;2023-02-03T06:45:44;98511.84;;;5.15;76.56
2841;BME280;53423;49.224;12.074;2023-02-03T06:48:12;98505.00;;;5.14;76.33
2841;BME280;53423;49.224;12.074;2023-02-03T06:50:41;98496.09;;;5.05;76.07
2841;BME280;53423;49.224;12.074;2023-02-03T06:53:10;98481.63;;;4.90;77.71
2841;BME280;53423;49.224;12.074;2023-02-03T06:55:38;98492.66;;;5.05;77.56
2841;BME280;53423;49.224;12.074;2023-02-03T06:58:06;98495.19;;;5.18;76.33
2841;BME280;53423;49.224;12.074;2023-02-03T07:00:34;98504.16;;;5.14;76.64
2841;BME280;53423;49.224;12.074;2023-02-03T07:03:02;98513.81;;;5.24;75.76
2841;BME280;53423;49.224;12.074;2023-02-03T07:05:30;98506.03;;;5.35;75.24
2841;BME280;53423;49.224;12.074;2023-02-03T07:07:58;98490.59;;;5.45;75.62
2841;BME280;53423;49.224;12.074;2023-02-03T07:10:27;98496.97;;;5.41;75.17
2841;BME280;53423;49.224;12.074;2023-02-03T07:13:01;98500.63;;;5.38;75.68
2841;BME280;53423;49.224;12.074;2023-02-03T07:15:29;98506.88;;;5.36;76.27
2841;BME280;53423;49.224;12.074;2023-02-03T07:17:57;98517.25;;;5.59;74.10
2841;BME280;53423;49.224;12.074;2023-02-03T07:20:25;98523.28;;;5.36;75.81
2841;BME280;53423;49.224;12.074;2023-02-03T07:22:55;98535.63;;;5.45;74.53
2841;BME280;53423;49.224;12.074;2023-02-03T07:25:24;98522.06;;;5.53;74.59
2841;BME280;53423;49.224;12.074;2023-02-03T07:27:54;98499.84;;;5.60;73.50
2841;BME280;53423;49.224;12.074;2023-02-03T07:30:22;98517.38;;;5.58;74.31
2841;BME280;53423;49.224;12.074;2023-02-03T07:32:51;98506.00;;;5.59;74.32
2841;BME280;53423;49.224;12.074;2023-02-03T07:35:20;98504.56;;;5.55;74.65
2841;BME280;53423;49.224;12.074;2023-02-03T07:37:48;98496.13;;;5.75;73.57
2841;BME280;53423;49.224;12.074;2023-02-03T07:40:16;98494.34;;;5.64;74.21
2841;BME280;53423;49.224;12.074;2023-02-03T07:42:45;98512.75;;;5.61;74.65
2841;BME280;53423;49.224;12.074;2023-02-03T07:45:16;98508.38;;;5.62;74.47
2841;BME280;53423;49.224;12.074;2023-02-03T07:47:44;98498.13;;;5.71;74.07
2841;BME280;53423;49.224;12.074;2023-02-03T07:50:12;98506.75;;;5.61;73.52
2841;BME280;53423;49.224;12.074;2023-02-03T07:52:40;98514.53;;;5.61;73.93
2841;BME280;53423;49.224;12.074;2023-02-03T07:55:08;98519.75;;;5.72;73.51
2841;BME280;53423;49.224;12.074;2023-02-03T07:57:36;98513.56;;;5.85;72.67
2841;BME280;53423;49.224;12.074;2023-02-03T08:00:10;98508.31;;;5.74;72.80
2841;BME280;53423;49.224;12.074;2023-02-03T08:02:41;98506.84;;;5.83;73.63
2841;BME280;53423;49.224;12.074;2023-02-03T08:05:10;98524.81;;;5.86;73.18
2841;BME280;53423;49.224;12.074;2023-02-03T08:07:38;98491.81;;;5.86;73.53
2841;BME280;53423;49.224;12.074;2023-02-03T08:10:07;98512.75;;;5.61;73.57
2841;BME280;53423;49.224;12.074;2023-02-03T08:12:36;98502.25;;;5.63;73.78
2841;BME280;53423;49.224;12.074;2023-02-03T08:15:05;98500.69;;;5.84;72.64
2841;BME280;53423;49.224;12.074;2023-02-03T08:17:33;98513.22;;;5.66;73.36
2841;BME280;53423;49.224;12.074;2023-02-03T08:20:04;98509.38;;;5.72;73.28
2841;BME280;53423;49.224;12.074;2023-02-03T08:22:32;98515.16;;;5.64;74.40
2841;BME280;53423;49.224;12.074;2023-02-03T08:25:00;98497.13;;;5.61;73.48
2841;BME280;53423;49.224;12.074;2023-02-03T08:27:30;98499.06;;;5.70;73.43
2841;BME280;53423;49.224;12.074;2023-02-03T08:29:58;98495.75;;;5.68;73.60
2841;BME280;53423;49.224;12.074;2023-02-03T08:32:26;98486.66;;;5.63;73.93
2841;BME280;53423;49.224;12.074;2023-02-03T08:34:54;98482.47;;;5.84;73.70
2841;BME280;53423;49.224;12.074;2023-02-03T08:37:24;98484.72;;;5.88;72.95
2841;BME280;53423;49.224;12.074;2023-02-03T08:39:53;98491.47;;;5.91;72.14
2841;BME280;53423;49.224;12.074;2023-02-03T08:42:21;98482.47;;;5.84;73.13
2841;BME280;53423;49.224;12.074;2023-02-03T08:44:49;98484.13;;;5.61;73.52
2841;BME280;53423;49.224;12.074;2023-02-03T08:47:17;98490.38;;;5.48;74.05
2841;BME280;53423;49.224;12.074;2023-02-03T08:49:45;98490.19;;;5.62;73.50
2841;BME280;53423;49.224;12.074;2023-02-03T08:52:14;98487.47;;;5.63;74.31
2841;BME280;53423;49.224;12.074;2023-02-03T08:54:46;98483.03;;;5.53;74.42
2841;BME280;53423;49.224;12.074;2023-02-03T08:57:14;98487.94;;;5.68;73.56
2841;BME280;53423;49.224;12.074;2023-02-03T08:59:43;98483.56;;;5.58;73.95
2841;BME280;53423;49.224;12.074;2023-02-03T09:02:15;98476.63;;;5.80;73.56
2841;BME280;53423;49.224;12.074;2023-02-03T09:04:45;98498.81;;;5.86;72.73
2841;BME280;53423;49.224;12.074;2023-02-03T09:07:15;98477.41;;;5.93;73.22
2841;BME280;53423;49.224;12.074;2023-02-03T09:09:43;98480.34;;;6.00;72.66
2841;BME280;53423;49.224;12.074;2023-02-03T09:12:12;98486.75;;;6.07;72.32
2841;BME280;53423;49.224;12.074;2023-02-03T09:14:40;98474.47;;;5.98;72.88
2841;BME280;53423;49.224;12.074;2023-02-03T09:17:09;98477.91;;;5.75;73.04
2841;BME280;53423;49.224;12.074;2023-02-03T09:19:37;98486.53;;;5.99;72.97
2841;BME280;53423;49.224;12.074;2023-02-03T09:22:05;98478.59;;;6.00;72.17
2841;BME280;53423;49.224;12.074;2023-02-03T09:24:33;98503.69;;;6.23;71.36
2841;BME280;53423;49.224;12.074;2023-02-03T09:27:01;98480.97;;;6.03;72.03
2841;BME280;53423;49.224;12.074;2023-02-03T09:29:30;98479.66;;;6.09;71.84
2841;BME280;53423;49.224;12.074;2023-02-03T09:31:58;98475.91;;;6.13;71.84
2841;BME280;53423;49.224;12.074;2023-02-03T09:34:32;98480.16;;;6.03;71.76
2841;BME280;53423;49.224;12.074;2023-02-03T09:37:00;98487.00;;;5.93;72.24
2841;BME280;53423;49.224;12.074;2023-02-03T09:39:30;98483.91;;;5.99;72.90
2841;BME280;53423;49.224;12.074;2023-02-03T09:42:27;98471.03;;;6.08;72.15
2841;BME280;53423;49.224;12.074;2023-02-03T09:45:08;98480.03;;;6.15;72.32
2841;BME280;53423;49.224;12.074;2023-02-03T09:47:39;98481.78;;;6.15;72.49
2841;BME280;53423;49.224;12.074;2023-02-03T09:50:12;98483.00;;;6.11;72.34
2841;BME280;53423;49.224;12.074;2023-02-03T09:52:42;98480.94;;;5.92;73.05
2841;BME280;53423;49.224;12.074;2023-02-03T09:55:19;98467.75;;;6.06;72.64
2841;BME280;53423;49.224;12.074;2023-02-03T09:57:52;98457.44;;;6.27;71.22
2841;BME280;53423;49.224;12.074;2023-02-03T10:00:26;98472.69;;;6.20;71.93
2841;BME280;53423;49.224;12.074;2023-02-03T10:03:00;98474.00;;;6.26;71.39
2841;BME280;53423;49.224;12.074;2023-02-03T10:05:42;98470.22;;;6.08;71.89
2841;BME280;53423;49.224;12.074;2023-02-03T10:08:20;98463.69;;;6.13;71.85
2841;BME280;53423;49.224;12.074;2023-02-03T10:10:55;98462.88;;;6.24;71.59
2841;BME280;53423;49.224;12.074;2023-02-03T10:13:47;98444.78;;;6.22;71.87
2841;BME280;53423;49.224;12.074;2023-02-03T10:16:25;98452.13;;;6.17;71.91
2841;BME280;53423;49.224;12.074;2023-02-03T10:19:03;98467.72;;;6.28;71.82
2841;BME280;53423;49.224;12.074;2023-02-03T10:21:36;98468.78;;;6.37;70.98
2841;BME280;53423;49.224;12.074;2023-02-03T10:24:09;98482.28;;;6.42;71.45
2841;BME280;53423;49.224;12.074;2023-02-03T10:26:40;98492.69;;;6.42;70.29
2841;BME280;53423;49.224;12.074;2023-02-03T10:29:17;98491.75;;;6.43;70.06
2841;BME280;53423;49.224;12.074;2023-02-03T10:31:47;98483.56;;;6.70;70.14
2841;BME280;53423;49.224;12.074;2023-02-03T10:34:16;98456.97;;;6.55;69.98
2841;BME280;53423;49.224;12.074;2023-02-03T10:36:53;98441.91;;;6.59;69.42
2841;BME280;53423;49.224;12.074;2023-02-03T10:39:28;98440.75;;;6.52;70.46
2841;BME280;53423;49.224;12.074;2023-02-03T10:42:24;98429.91;;;6.67;70.04
2841;BME280;53423;49.224;12.074;2023-02-03T10:45:12;98433.31;;;6.79;69.98
2841;BME280;53423;49.224;12.074;2023-02-03T10:47:45;98425.63;;;6.88;69.59
2841;BME280;53423;49.224;12.074;2023-02-03T10:50:16;98415.91;;;6.90;69.22
2841;BME280;53423;49.224;12.074;2023-02-03T10:52:45;98410.06;;;6.98;68.27
2841;BME280;53423;49.224;12.074;2023-02-03T10:55:29;98411.44;;;7.13;67.91
2841;BME280;53423;49.224;12.074;2023-02-03T10:58:05;98419.25;;;7.13;68.14
2841;BME280;53423;49.224;12.074;2023-02-03T11:00:38;98404.91;;;6.87;68.94
2841;BME280;53423;49.224;12.074;2023-02-03T11:03:19;98416.25;;;6.86;69.38
2841;BME280;53423;49.224;12.074;2023-02-03T11:06:03;98412.09;;;6.94;68.20
2841;BME280;53423;49.224;12.074;2023-02-03T11:08:32;98403.78;;;7.00;68.84
2841;BME280;53423;49.224;12.074;2023-02-03T11:11:02;98392.16;;;7.04;68.87
2841;BME280;53423;49.224;12.074;2023-02-03T11:13:30;98386.81;;;7.06;68.03
2841;BME280;53423;49.224;12.074;2023-02-03T11:16:00;98370.63;;;7.23;67.32
2841;BME280;53423;49.224;12.074;2023-02-03T11:18:51;98367.91;;;6.93;68.65
2841;BME280;53423;49.224;12.074;2023-02-03T11:21:22;98368.09;;;6.80;68.82
2841;BME280;53423;49.224;12.074;2023-02-03T11:23:54;98366.28;;;7.12;68.76
2841;BME280;53423;49.224;12.074;2023-02-03T11:26:26;98345.94;;;7.06;68.19
2841;BME280;53423;49.224;12.074;2023-02-03T11:28:56;98349.34;;;6.86;69.17
2841;BME280;53423;49.224;12.074;2023-02-03T11:31:27;98345.06;;;6.65;69.46
2841;BME280;53423;49.224;12.074;2023-02-03T11:33:59;98335.88;;;6.81;69.27
2841;BME280;53423;49.224;12.074;2023-02-03T11:36:30;98325.72;;;6.78;69.61
2841;BME280;53423;49.224;12.074;2023-02-03T11:39:13;98324.81;;;7.09;68.74
2841;BME280;53423;49.224;12.074;2023-02-03T11:41:43;98308.25;;;6.90;69.13
2841;BME280;53423;49.224;12.074;2023-02-03T11:44:16;98308.44;;;6.98;69.12
2841;BME280;53423;49.224;12.074;2023-02-03T11:46:46;98312.81;;;6.97;68.79
2841;BME280;53423;49.224;12.074;2023-02-03T11:55:20;98293.22;;;6.82;68.54
2841;BME280;53423;49.224;12.074;2023-02-03T11:58:00;98313.13;;;6.83;68.89
2841;BME280;53423;49.224;12.074;2023-02-03T12:00:36;98306.31;;;7.12;67.54
2841;BME280;53423;49.224;12.074;2023-02-03T12:03:38;98294.81;;;7.15;68.00
2841;BME280;53423;49.224;12.074;2023-02-03T12:06:23;98287.00;;;7.15;67.78
2841;BME280;53423;49.224;12.074;2023-02-03T12:09:03;98272.66;;;7.20;67.32
2841;BME280;53423;49.224;12.074;2023-02-03T12:11:47;98265.94;;;7.27;67.53
2841;BME280;53423;49.224;12.074;2023-02-03T12:14:33;98275.69;;;7.25;67.82
2841;BME280;53423;49.224;12.074;2023-02-03T12:17:20;98281.66;;;7.16;67.73
2841;BME280;53423;49.224;12.074;2023-02-03T12:20:04;98289.44;;;6.86;69.34
2841;BME280;53423;49.224;12.074;2023-02-03T12:22:39;98282.66;;;6.84;70.38
2841;BME280;53423;49.224;12.074;2023-02-03T12:25:28;98284.72;;;6.80;69.55
2841;BME280;53423;49.224;12.074;2023-02-03T12:28:15;98284.72;;;7.01;69.88
2841;BME280;53423;49.224;12.074;2023-02-03T12:31:02;98276.75;;;7.02;69.91
2841;BME280;53423;49.224;12.074;2023-02-03T12:33:35;98265.47;;;6.92;70.01
2841;BME280;53423;49.224;12.074;2023-02-03T12:36:10;98253.78;;;6.87;69.72
2841;BME280;53423;49.224;12.074;2023-02-03T12:38:44;98240.31;;;6.82;70.37
2841;BME280;53423;49.224;12.074;2023-02-03T12:41:15;98237.25;;;6.77;70.55
2841;BME280;53423;49.224;12.074;2023-02-03T12:43:46;98229.44;;;6.77;70.62
2841;BME280;53423;49.224;12.074;2023-02-03T12:46:19;98219.47;;;6.82;70.69
2841;BME280;53423;49.224;12.074;2023-02-03T12:48:51;98223.09;;;6.70;71.54
2841;BME280;53423;49.224;12.074;2023-02-03T12:51:28;98194.75;;;6.76;70.15
2841;BME280;53423;49.224;12.074;2023-02-03T12:54:02;98199.00;;;6.77;71.57
2841;BME280;53423;49.224;12.074;2023-02-03T12:56:36;98194.00;;;6.85;70.85
2841;BME280;53423;49.224;12.074;2023-02-03T12:59:11;98177.91;;;6.80;70.92
2841;BME280;53423;49.224;12.074;2023-02-03T13:01:45;98186.53;;;7.01;70.79
2841;BME280;53423;49.224;12.074;2023-02-03T13:04:22;98201.75;;;7.06;69.90
2841;BME280;53423;49.224;12.074;2023-02-03T13:06:57;98213.59;;;6.69;70.95
2841;BME280;53423;49.224;12.074;2023-02-03T13:09:34;98216.06;;;6.91;70.83
2841;BME280;53423;49.224;12.074;2023-02-03T13:12:07;98205.44;;;6.73;71.17
2841;BME280;53423;49.224;12.074;2023-02-03T13:14:41;98186.81;;;6.78;71.64
2841;BME280;53423;49.224;12.074;2023-02-03T13:17:15;98189.28;;;6.79;70.74
2841;BME280;53423;49.224;12.074;2023-02-03T13:19:47;98176.94;;;6.81;70.05
2841;BME280;53423;49.224;12.074;2023-02-03T13:22:17;98173.81;;;6.87;70.29
2841;BME280;53423;49.224;12.074;2023-02-03T13:24:54;98166.00;;;6.87;69.69
2841;BME280;53423;49.224;12.074;2023-02-03T13:27:35;98159.88;;;6.68;70.61
2841;BME280;53423;49.224;12.074;2023-02-03T13:30:45;98127.56;;;6.70;70.39
2841;BME280;53423;49.224;12.074;2023-02-03T13:33:40;98087.16;;;6.85;70.76
2841;BME280;53423;49.224;12.074;2023-02-03T13:36:41;98115.16;;;6.93;69.96
2841;BME280;53423;49.224;12.074;2023-02-03T13:39:41;98117.31;;;6.78;70.82
2841;BME280;53423;49.224;12.074;2023-02-03T13:42:19;98104.88;;;6.91;71.04
2841;BME280;53423;49.224;12.074;2023-02-03T13:44:52;98102.09;;;6.83;70.59
2841;BME280;53423;49.224;12.074;2023-02-03T13:47:24;98110.34;;;6.88;70.05